sensor_id;sensor_type;location;lat;lon;timestamp;pressure;altitude;pressure_sealevel;temperature;humidity
15568;BME280;7885;42.596;23.044;2023-03-03T00:01:00;92922.31;;;6.56;91.04
15568;BME280;7885;42.596;23.044;2023-03-03T00:03:27;92924.84;;;6.42;91.26
15568;BME280;7885;42.596;23.044;2023-03-03T00:05:55;92920.19;;;6.39;91.12
15568;BME280;7885;42.596;23.044;2023-03-03T00:08:21;92877.44;;;6.15;91.38
15568;BME280;7885;42.596;23.044;2023-03-03T00:10:48;92894.38;;;6.12;91.53
15568;BME280;7885;42.596;23.044;2023-03-03T00:23:29;92903.63;;;5.85;94.56
15568;BME280;7885;42.596;23.044;2023-03-03T00:25:57;92898.31;;;5.66;95.55
15568;BME280;7885;42.596;23.044;2023-03-03T00:28:28;92892.00;;;5.54;95.78
15568;BME280;7885;42.596;23.044;2023-03-03T00:30:56;92893.44;;;5.48;95.96
15568;BME280;7885;42.596;23.044;2023-03-03T00:33:27;92900.25;;;5.39;96.98
15568;BME280;7885;42.596;23.044;2023-03-03T00:35:59;92885.69;;;5.21;97.78
15568;BME280;7885;42.596;23.044;2023-03-03T00:38:36;92892.59;;;5.18;98.42
15568;BME280;7885;42.596;23.044;2023-03-03T00:41:10;92893.53;;;5.29;98.51
15568;BME280;7885;42.596;23.044;2023-03-03T00:43:41;92819.06;;;4.98;98.26
15568;BME280;7885;42.596;23.044;2023-03-03T00:46:08;92891.13;;;5.47;97.76
15568;BME280;7885;42.596;23.044;2023-03-03T00:48:41;92880.28;;;5.43;97.72
15568;BME280;7885;42.596;23.044;2023-03-03T00:51:20;92880.38;;;5.50;97.53
15568;BME280;7885;42.596;23.044;2023-03-03T00:53:52;92805.88;;;5.16;97.70
15568;BME280;7885;42.596;23.044;2023-03-03T00:56:19;92882.31;;;5.80;97.70
15568;BME280;7885;42.596;23.044;2023-03-03T00:58:46;92878.31;;;5.93;96.82
15568;BME280;7885;42.596;23.044;2023-03-03T01:01:14;92881.78;;;5.93;96.07
15568;BME280;7885;42.596;23.044;2023-03-03T01:03:41;92872.56;;;5.98;95.64
15568;BME280;7885;42.596;23.044;2023-03-03T01:06:09;92790.88;;;5.48;95.25
15568;BME280;7885;42.596;23.044;2023-03-03T01:08:36;92876.94;;;6.06;94.78
15568;BME280;7885;42.596;23.044;2023-03-03T01:11:06;92869.66;;;6.10;95.23
15568;BME280;7885;42.596;23.044;2023-03-03T01:13:35;92868.91;;;6.13;94.81
15568;BME280;7885;42.596;23.044;2023-03-03T01:16:03;92851.97;;;6.16;94.70
15568;BME280;7885;42.596;23.044;2023-03-03T01:18:30;92852.06;;;6.23;93.84
15568;BME280;7885;42.596;23.044;2023-03-03T01:20:57;92858.59;;;6.22;93.58
15568;BME280;7885;42.596;23.044;2023-03-03T01:23:24;92865.88;;;6.18;93.50
15568;BME280;7885;42.596;23.044;2023-03-03T01:25:51;92864.31;;;6.14;93.47
15568;BME280;7885;42.596;23.044;2023-03-03T01:28:19;92865.44;;;6.13;93.22
15568;BME280;7885;42.596;23.044;2023-03-03T01:30:46;92858.03;;;6.06;93.67
15568;BME280;7885;42.596;23.044;2023-03-03T01:33:12;92861.13;;;6.08;93.78
15568;BME280;7885;42.596;23.044;2023-03-03T01:35:43;92865.69;;;6.04;93.92
15568;BME280;7885;42.596;23.044;2023-03-03T01:38:10;92859.59;;;5.81;94.37
15568;BME280;7885;42.596;23.044;2023-03-03T01:40:37;92859.38;;;5.89;94.89
15568;BME280;7885;42.596;23.044;2023-03-03T01:43:04;92856.72;;;5.93;94.67
15568;BME280;7885;42.596;23.044;2023-03-03T01:45:42;92852.53;;;5.99;95.01
15568;BME280;7885;42.596;23.044;2023-03-03T01:48:13;92754.47;;;5.35;94.48
15568;BME280;7885;42.596;23.044;2023-03-03T01:50:44;92847.88;;;5.96;94.73
15568;BME280;7885;42.596;23.044;2023-03-03T01:53:18;92831.50;;;5.85;95.09
15568;BME280;7885;42.596;23.044;2023-03-03T01:55:46;92848.66;;;6.00;95.41
15568;BME280;7885;42.596;23.044;2023-03-03T01:58:17;92848.66;;;6.00;95.71
15568;BME280;7885;42.596;23.044;2023-03-03T02:00:50;92842.50;;;5.99;95.19
15568;BME280;7885;42.596;23.044;2023-03-03T02:03:20;92805.91;;;5.76;95.59
15568;BME280;7885;42.596;23.044;2023-03-03T02:05:48;92826.16;;;5.89;96.02
15568;BME280;7885;42.596;23.044;2023-03-03T02:08:19;92838.56;;;5.93;95.88
15568;BME280;7885;42.596;23.044;2023-03-03T02:10:47;92840.13;;;5.94;96.22
15568;BME280;7885;42.596;23.044;2023-03-03T02:13:14;92841.31;;;5.97;96.53
15568;BME280;7885;42.596;23.044;2023-03-03T02:15:41;92838.69;;;6.04;97.32
15568;BME280;7885;42.596;23.044;2023-03-03T02:18:11;92839.16;;;6.09;97.58
15568;BME280;7885;42.596;23.044;2023-03-03T02:20:45;92803.00;;;5.88;97.32
15568;BME280;7885;42.596;23.044;2023-03-03T02:23:20;92843.09;;;6.16;97.62
15568;BME280;7885;42.596;23.044;2023-03-03T02:25:52;92822.94;;;6.09;97.54
15568;BME280;7885;42.596;23.044;2023-03-03T02:28:23;92832.75;;;6.25;97.26
15568;BME280;7885;42.596;23.044;2023-03-03T02:30:53;92811.41;;;6.13;97.37
15568;BME280;7885;42.596;23.044;2023-03-03T02:33:20;92835.88;;;6.27;97.62
15568;BME280;7885;42.596;23.044;2023-03-03T02:35:47;92825.03;;;6.23;97.87
15568;BME280;7885;42.596;23.044;2023-03-03T02:38:19;92831.25;;;6.27;97.56
15568;BME280;7885;42.596;23.044;2023-03-03T02:40:56;92816.50;;;6.21;97.71
15568;BME280;7885;42.596;23.044;2023-03-03T02:43:31;92821.16;;;6.24;97.25
15568;BME280;7885;42.596;23.044;2023-03-03T02:46:02;92743.47;;;5.81;96.99
15568;BME280;7885;42.596;23.044;2023-03-03T02:48:29;92825.16;;;6.34;96.14
15568;BME280;7885;42.596;23.044;2023-03-03T02:50:55;92830.91;;;6.32;95.70
15568;BME280;7885;42.596;23.044;2023-03-03T02:53:22;92831.25;;;6.27;96.42
15568;BME280;7885;42.596;23.044;2023-03-03T02:55:49;92833.16;;;6.23;96.97
15568;BME280;7885;42.596;23.044;2023-03-03T02:58:15;92838.13;;;6.21;96.60
15568;BME280;7885;42.596;23.044;2023-03-03T03:00:43;92835.84;;;6.23;96.38
15568;BME280;7885;42.596;23.044;2023-03-03T03:03:12;92779.09;;;5.90;96.45
15568;BME280;7885;42.596;23.044;2023-03-03T03:05:38;92825.34;;;6.18;96.57
15568;BME280;7885;42.596;23.044;2023-03-03T03:08:05;92827.31;;;6.21;95.77
15568;BME280;7885;42.596;23.044;2023-03-03T03:10:32;92827.69;;;6.20;96.14
15568;BME280;7885;42.596;23.044;2023-03-03T03:12:59;92783.69;;;5.86;95.63
15568;BME280;7885;42.596;23.044;2023-03-03T03:15:25;92743.97;;;5.56;95.63
15568;BME280;7885;42.596;23.044;2023-03-03T03:17:53;92828.31;;;6.06;96.18
15568;BME280;7885;42.596;23.044;2023-03-03T03:20:20;92833.38;;;6.11;96.39
15568;BME280;7885;42.596;23.044;2023-03-03T03:22:47;92821.03;;;6.10;96.22
15568;BME280;7885;42.596;23.044;2023-03-03T03:25:14;92823.31;;;6.08;96.42
15568;BME280;7885;42.596;23.044;2023-03-03T03:27:41;92817.16;;;6.11;95.92
15568;BME280;7885;42.596;23.044;2023-03-03T03:30:08;92813.31;;;6.12;95.90
15568;BME280;7885;42.596;23.044;2023-03-03T03:32:35;92816.44;;;6.14;95.20
15568;BME280;7885;42.596;23.044;2023-03-03T03:35:04;92816.09;;;6.19;94.09
15568;BME280;7885;42.596;23.044;2023-03-03T03:37:31;92790.81;;;6.01;94.23
15568;BME280;7885;42.596;23.044;2023-03-03T03:39:57;92812.59;;;6.15;94.43
15568;BME280;7885;42.596;23.044;2023-03-03T03:42:42;92806.44;;;6.18;94.15
15568;BME280;7885;42.596;23.044;2023-03-03T03:45:10;92813.72;;;6.14;94.37
15568;BME280;7885;42.596;23.044;2023-03-03T03:47:39;92813.69;;;6.10;94.78
15568;BME280;7885;42.596;23.044;2023-03-03T03:50:09;92809.41;;;6.06;94.64
15568;BME280;7885;42.596;23.044;2023-03-03T03:52:36;92786.09;;;5.94;94.91
15568;BME280;7885;42.596;23.044;2023-03-03T03:55:04;92810.22;;;6.10;95.31
15568;BME280;7885;42.596;23.044;2023-03-03T03:57:31;92802.13;;;6.10;95.48
15568;BME280;7885;42.596;23.044;2023-03-03T03:59:58;92793.16;;;6.02;95.62
15568;BME280;7885;42.596;23.044;2023-03-03T04:02:25;92697.06;;;5.38;94.92
15568;BME280;7885;42.596;23.044;2023-03-03T04:04:51;92728.16;;;5.58;94.85
15568;BME280;7885;42.596;23.044;2023-03-03T04:07:19;92799.72;;;6.05;95.52
15568;BME280;7885;42.596;23.044;2023-03-03T04:09:46;92806.69;;;6.06;95.96
15568;BME280;7885;42.596;23.044;2023-03-03T04:12:13;92793.66;;;5.82;96.25
15568;BME280;7885;42.596;23.044;2023-03-03T04:14:39;92799.16;;;5.89;96.34
15568;BME280;7885;42.596;23.044;2023-03-03T04:17:06;92799.09;;;5.85;96.63
15568;BME280;7885;42.596;23.044;2023-03-03T04:19:33;92784.22;;;5.69;96.98
15568;BME280;7885;42.596;23.044;2023-03-03T04:21:59;92791.59;;;5.72;97.79
15568;BME280;7885;42.596;23.044;2023-03-03T04:24:28;92801.97;;;5.70;98.58
15568;BME280;7885;42.596;23.044;2023-03-03T04:26:54;92792.28;;;5.65;98.52
15568;BME280;7885;42.596;23.044;2023-03-03T04:29:21;92806.72;;;5.80;98.95
15568;BME280;7885;42.596;23.044;2023-03-03T04:31:48;92769.88;;;5.61;98.89
15568;BME280;7885;42.596;23.044;2023-03-03T04:34:14;92798.75;;;5.87;98.53
15568;BME280;7885;42.596;23.044;2023-03-03T04:36:41;92801.09;;;5.88;96.98
15568;BME280;7885;42.596;23.044;2023-03-03T04:39:08;92759.38;;;5.56;96.46
15568;BME280;7885;42.596;23.044;2023-03-03T04:41:36;92779.69;;;5.76;97.09
15568;BME280;7885;42.596;23.044;2023-03-03T04:44:03;92807.19;;;5.85;96.68
15568;BME280;7885;42.596;23.044;2023-03-03T04:46:29;92809.13;;;5.85;96.88
15568;BME280;7885;42.596;23.044;2023-03-03T04:48:56;92806.84;;;5.87;96.44
15568;BME280;7885;42.596;23.044;2023-03-03T04:51:23;92787.47;;;5.81;96.00
15568;BME280;7885;42.596;23.044;2023-03-03T04:53:49;92809.22;;;5.92;96.17
15568;BME280;7885;42.596;23.044;2023-03-03T04:56:16;92802.25;;;5.91;97.19
15568;BME280;7885;42.596;23.044;2023-03-03T04:58:44;92765.25;;;5.62;97.76
15568;BME280;7885;42.596;23.044;2023-03-03T05:01:12;92795.91;;;5.80;97.85
15568;BME280;7885;42.596;23.044;2023-03-03T05:03:38;92808.81;;;5.90;98.16
15568;BME280;7885;42.596;23.044;2023-03-03T05:09:27;92803.66;;;5.81;98.38
15568;BME280;7885;42.596;23.044;2023-03-03T05:11:54;92818.91;;;5.93;98.37
15568;BME280;7885;42.596;23.044;2023-03-03T05:14:22;92817.72;;;5.94;97.71
15568;BME280;7885;42.596;23.044;2023-03-03T05:16:49;92818.16;;;5.96;97.00
15568;BME280;7885;42.596;23.044;2023-03-03T05:19:15;92819.28;;;5.95;95.95
15568;BME280;7885;42.596;23.044;2023-03-03T05:21:42;92753.84;;;5.45;95.79
15568;BME280;7885;42.596;23.044;2023-03-03T05:24:09;92814.72;;;5.73;96.51
15568;BME280;7885;42.596;23.044;2023-03-03T05:26:36;92794.84;;;5.54;96.80
15568;BME280;7885;42.596;23.044;2023-03-03T05:29:04;92808.75;;;5.56;96.98
15568;BME280;7885;42.596;23.044;2023-03-03T05:31:33;92813.50;;;5.67;96.95
15568;BME280;7885;42.596;23.044;2023-03-03T05:33:59;92827.44;;;5.69;96.68
15568;BME280;7885;42.596;23.044;2023-03-03T05:36:26;92808.06;;;5.63;96.66
15568;BME280;7885;42.596;23.044;2023-03-03T05:38:53;92791.31;;;5.50;96.35
15568;BME280;7885;42.596;23.044;2023-03-03T05:41:20;92820.47;;;5.68;96.75
15568;BME280;7885;42.596;23.044;2023-03-03T05:43:46;92822.03;;;5.69;96.59
15568;BME280;7885;42.596;23.044;2023-03-03T05:46:13;92826.25;;;5.70;95.83
15568;BME280;7885;42.596;23.044;2023-03-03T05:48:41;92792.53;;;5.56;95.72
15568;BME280;7885;42.596;23.044;2023-03-03T05:51:08;92803.28;;;5.53;95.72
15568;BME280;7885;42.596;23.044;2023-03-03T05:53:34;92829.69;;;5.67;96.35
15568;BME280;7885;42.596;23.044;2023-03-03T05:56:01;92807.13;;;5.52;96.80
15568;BME280;7885;42.596;23.044;2023-03-03T05:58:28;92837.78;;;5.67;95.69
15568;BME280;7885;42.596;23.044;2023-03-03T06:00:55;92835.03;;;5.63;94.78
15568;BME280;7885;42.596;23.044;2023-03-03T06:03:22;92840.09;;;5.65;95.26
15568;BME280;7885;42.596;23.044;2023-03-03T06:05:50;92837.41;;;5.65;95.32
15568;BME280;7885;42.596;23.044;2023-03-03T06:08:16;92801.59;;;5.41;95.11
15568;BME280;7885;42.596;23.044;2023-03-03T06:10:43;92831.16;;;5.60;95.17
15568;BME280;7885;42.596;23.044;2023-03-03T06:13:10;92843.53;;;5.62;95.33
15568;BME280;7885;42.596;23.044;2023-03-03T06:15:37;92845.78;;;5.59;95.49
15568;BME280;7885;42.596;23.044;2023-03-03T06:18:03;92834.91;;;5.52;95.17
15568;BME280;7885;42.596;23.044;2023-03-03T06:20:30;92832.63;;;5.54;94.67
15568;BME280;7885;42.596;23.044;2023-03-03T06:22:59;92819.44;;;5.49;93.74
15568;BME280;7885;42.596;23.044;2023-03-03T06:25:25;92791.84;;;5.33;93.99
15568;BME280;7885;42.596;23.044;2023-03-03T06:27:52;92844.03;;;5.71;94.68
15568;BME280;7885;42.596;23.044;2023-03-03T06:30:19;92828.03;;;5.58;94.80
15568;BME280;7885;42.596;23.044;2023-03-03T06:32:46;92818.41;;;5.57;94.67
15568;BME280;7885;42.596;23.044;2023-03-03T06:38:35;92856.22;;;5.87;93.75
15568;BME280;7885;42.596;23.044;2023-03-03T06:41:02;92825.09;;;5.67;93.15
15568;BME280;7885;42.596;23.044;2023-03-03T06:43:31;92854.66;;;5.86;92.73
15568;BME280;7885;42.596;23.044;2023-03-03T06:45:58;92863.84;;;5.82;92.64
15568;BME280;7885;42.596;23.044;2023-03-03T06:48:28;92861.88;;;5.79;93.41
15568;BME280;7885;42.596;23.044;2023-03-03T06:50:54;92863.13;;;5.85;93.89
15568;BME280;7885;42.596;23.044;2023-03-03T06:53:21;92840.28;;;5.79;93.17
15568;BME280;7885;42.596;23.044;2023-03-03T06:55:49;92865.50;;;5.90;92.55
15568;BME280;7885;42.596;23.044;2023-03-03T07:05:00;92870.31;;;6.03;92.55
15568;BME280;7885;42.596;23.044;2023-03-03T07:07:27;92855.53;;;5.94;92.30
15568;BME280;7885;42.596;23.044;2023-03-03T07:09:55;92836.84;;;5.82;91.62
15568;BME280;7885;42.596;23.044;2023-03-03T07:12:26;92823.56;;;5.70;91.97
15568;BME280;7885;42.596;23.044;2023-03-03T07:14:58;92867.22;;;6.01;92.41
15568;BME280;7885;42.596;23.044;2023-03-03T07:17:27;92864.56;;;6.05;93.41
15568;BME280;7885;42.596;23.044;2023-03-03T07:19:54;92879.59;;;6.02;92.01
15568;BME280;7885;42.596;23.044;2023-03-03T07:22:23;92874.06;;;5.92;91.77
15568;BME280;7885;42.596;23.044;2023-03-03T07:24:53;92853.34;;;5.77;92.52
15568;BME280;7885;42.596;23.044;2023-03-03T07:27:24;92872.25;;;5.77;92.65
15568;BME280;7885;42.596;23.044;2023-03-03T07:29:53;92857.44;;;5.64;93.42
15568;BME280;7885;42.596;23.044;2023-03-03T07:32:24;92873.09;;;5.81;93.69
15568;BME280;7885;42.596;23.044;2023-03-03T07:34:53;92872.34;;;5.84;93.09
15568;BME280;7885;42.596;23.044;2023-03-03T07:40:45;92870.53;;;5.88;92.54
15568;BME280;7885;42.596;23.044;2023-03-03T07:43:26;92845.22;;;5.73;92.39
15568;BME280;7885;42.596;23.044;2023-03-03T07:45:58;92858.16;;;5.87;92.55
15568;BME280;7885;42.596;23.044;2023-03-03T07:48:30;92866.34;;;5.94;92.80
15568;BME280;7885;42.596;23.044;2023-03-03T07:51:03;92860.94;;;5.94;92.61
15568;BME280;7885;42.596;23.044;2023-03-03T07:53:33;92860.91;;;5.90;92.79
15568;BME280;7885;42.596;23.044;2023-03-03T07:56:10;92858.66;;;5.96;91.97
15568;BME280;7885;42.596;23.044;2023-03-03T07:58:42;92865.94;;;5.92;93.00
15568;BME280;7885;42.596;23.044;2023-03-03T08:01:37;92868.00;;;6.02;92.98
15568;BME280;7885;42.596;23.044;2023-03-03T08:04:19;92860.34;;;6.07;92.64
15568;BME280;7885;42.596;23.044;2023-03-03T08:06:49;92838.69;;;6.04;92.64
15568;BME280;7885;42.596;23.044;2023-03-03T08:09:35;92857.53;;;6.30;93.22
15568;BME280;7885;42.596;23.044;2023-03-03T08:12:35;92863.91;;;6.48;92.57
15568;BME280;7885;42.596;23.044;2023-03-03T08:15:23;92860.16;;;6.56;92.22
15568;BME280;7885;42.596;23.044;2023-03-03T08:17:51;92859.47;;;6.67;92.23
15568;BME280;7885;42.596;23.044;2023-03-03T08:20:52;92854.53;;;6.72;92.25
15568;BME280;7885;42.596;23.044;2023-03-03T08:23:20;92837.84;;;6.67;90.46
15568;BME280;7885;42.596;23.044;2023-03-03T08:25:48;92840.63;;;6.74;90.40
15568;BME280;7885;42.596;23.044;2023-03-03T08:28:16;92854.28;;;6.88;90.16
15568;BME280;7885;42.596;23.044;2023-03-03T08:30:44;92852.38;;;6.92;90.16
15568;BME280;7885;42.596;23.044;2023-03-03T08:33:12;92856.63;;;6.89;89.61
15568;BME280;7885;42.596;23.044;2023-03-03T08:35:39;92796.00;;;6.53;88.70
15568;BME280;7885;42.596;23.044;2023-03-03T08:38:06;92845.13;;;6.99;90.13
15568;BME280;7885;42.596;23.044;2023-03-03T08:40:34;92839.75;;;7.03;89.82
15568;BME280;7885;42.596;23.044;2023-03-03T08:43:01;92850.22;;;7.11;89.37
15568;BME280;7885;42.596;23.044;2023-03-03T08:45:28;92824.91;;;6.90;87.93
15568;BME280;7885;42.596;23.044;2023-03-03T08:47:56;92842.03;;;7.01;88.34
15568;BME280;7885;42.596;23.044;2023-03-03T08:50:24;92844.41;;;7.06;88.35
15568;BME280;7885;42.596;23.044;2023-03-03T08:52:51;92849.06;;;7.09;89.35
15568;BME280;7885;42.596;23.044;2023-03-03T08:55:17;92823.44;;;6.96;89.18
15568;BME280;7885;42.596;23.044;2023-03-03T08:57:44;92822.56;;;6.85;87.48
15568;BME280;7885;42.596;23.044;2023-03-03T09:00:14;92852.03;;;6.97;88.29
15568;BME280;7885;42.596;23.044;2023-03-03T09:02:41;92836.41;;;6.80;89.49
15568;BME280;7885;42.596;23.044;2023-03-03T09:05:11;92839.09;;;6.76;89.56
15568;BME280;7885;42.596;23.044;2023-03-03T09:07:37;92862.78;;;6.90;90.58
15568;BME280;7885;42.596;23.044;2023-03-03T09:10:05;92858.19;;;6.94;91.86
15568;BME280;7885;42.596;23.044;2023-03-03T09:12:34;92859.81;;;7.02;91.29
15568;BME280;7885;42.596;23.044;2023-03-03T09:15:12;92854.44;;;7.05;91.64
15568;BME280;7885;42.596;23.044;2023-03-03T09:17:40;92857.16;;;7.05;90.34
15568;BME280;7885;42.596;23.044;2023-03-03T09:20:27;92834.22;;;6.92;90.41
15568;BME280;7885;42.596;23.044;2023-03-03T09:22:57;92850.56;;;7.03;89.54
15568;BME280;7885;42.596;23.044;2023-03-03T09:25:30;92832.19;;;6.79;90.32
15568;BME280;7885;42.596;23.044;2023-03-03T09:27:57;92856.97;;;6.88;90.96
15568;BME280;7885;42.596;23.044;2023-03-03T09:30:36;92854.34;;;6.95;91.87
15568;BME280;7885;42.596;23.044;2023-03-03T09:33:22;92853.63;;;7.01;91.95
15568;BME280;7885;42.596;23.044;2023-03-03T09:35:53;92809.31;;;6.73;90.23
15568;BME280;7885;42.596;23.044;2023-03-03T09:38:26;92860.59;;;7.02;90.33
15568;BME280;7885;42.596;23.044;2023-03-03T09:44:28;92854.75;;;6.97;90.79
15568;BME280;7885;42.596;23.044;2023-03-03T09:47:11;92864.47;;;7.05;90.42
15568;BME280;7885;42.596;23.044;2023-03-03T09:49:46;92861.00;;;7.04;90.51
15568;BME280;7885;42.596;23.044;2023-03-03T09:52:29;92851.97;;;6.90;92.54
15568;BME280;7885;42.596;23.044;2023-03-03T09:55:07;92856.44;;;7.12;91.63
15568;BME280;7885;42.596;23.044;2023-03-03T09:57:50;92842.16;;;7.15;91.65
15568;BME280;7885;42.596;23.044;2023-03-03T10:00:34;92849.22;;;7.27;91.30
15568;BME280;7885;42.596;23.044;2023-03-03T10:03:36;92863.97;;;7.36;89.97
15568;BME280;7885;42.596;23.044;2023-03-03T10:06:16;92839.91;;;7.28;89.29
15568;BME280;7885;42.596;23.044;2023-03-03T10:08:54;92840.75;;;7.35;89.53
15568;BME280;7885;42.596;23.044;2023-03-03T10:11:27;92854.00;;;7.47;90.25
15568;BME280;7885;42.596;23.044;2023-03-03T10:14:08;92857.09;;;7.49;90.92
15568;BME280;7885;42.596;23.044;2023-03-03T10:16:52;92815.94;;;7.26;89.41
15568;BME280;7885;42.596;23.044;2023-03-03T10:19:34;92854.41;;;7.49;90.00
15568;BME280;7885;42.596;23.044;2023-03-03T10:22:13;92848.19;;;7.45;89.49
15568;BME280;7885;42.596;23.044;2023-03-03T10:24:52;92852.84;;;7.48;88.84
15568;BME280;7885;42.596;23.044;2023-03-03T10:27:37;92828.38;;;7.38;89.59
15568;BME280;7885;42.596;23.044;2023-03-03T10:30:13;92846.69;;;7.51;90.06
15568;BME280;7885;42.596;23.044;2023-03-03T10:32:48;92842.78;;;7.49;90.79
15568;BME280;7885;42.596;23.044;2023-03-03T10:35:38;92849.41;;;7.51;90.25
15568;BME280;7885;42.596;23.044;2023-03-03T10:38:17;92849.34;;;7.44;91.16
15568;BME280;7885;42.596;23.044;2023-03-03T10:40:50;92794.94;;;7.09;90.64
15568;BME280;7885;42.596;23.044;2023-03-03T10:43:33;92849.28;;;7.37;91.76
15568;BME280;7885;42.596;23.044;2023-03-03T10:46:32;92844.69;;;7.45;91.93
15568;BME280;7885;42.596;23.044;2023-03-03T10:49:21;92836.19;;;7.46;92.19
15568;BME280;7885;42.596;23.044;2023-03-03T10:52:03;92840.81;;;7.42;92.71
15568;BME280;7885;42.596;23.044;2023-03-03T10:54:45;92837.72;;;7.40;92.06
15568;BME280;7885;42.596;23.044;2023-03-03T10:57:23;92798.09;;;7.18;92.05
15568;BME280;7885;42.596;23.044;2023-03-03T11:00:07;92804.38;;;7.29;92.11
15568;BME280;7885;42.596;23.044;2023-03-03T11:02:46;92827.75;;;7.51;92.57
15568;BME280;7885;42.596;23.044;2023-03-03T11:05:27;92791.66;;;7.37;91.07
15568;BME280;7885;42.596;23.044;2023-03-03T11:07:56;92785.81;;;7.31;91.09
15568;BME280;7885;42.596;23.044;2023-03-03T11:10:41;92817.38;;;7.68;92.13
15568;BME280;7885;42.596;23.044;2023-03-03T11:13:17;92814.72;;;7.75;92.06
15568;BME280;7885;42.596;23.044;2023-03-03T11:15:58;92813.19;;;7.77;91.67
15568;BME280;7885;42.596;23.044;2023-03-03T11:18:44;92806.97;;;7.77;91.60
15568;BME280;7885;42.596;23.044;2023-03-03T11:21:22;92812.03;;;7.78;91.42
15568;BME280;7885;42.596;23.044;2023-03-03T11:24:03;92800.34;;;7.67;90.84
15568;BME280;7885;42.596;23.044;2023-03-03T11:26:43;92816.97;;;7.66;90.95
15568;BME280;7885;42.596;23.044;2023-03-03T11:32:42;92815.78;;;7.59;91.86
15568;BME280;7885;42.596;23.044;2023-03-03T11:35:19;92812.94;;;7.42;91.20
15568;BME280;7885;42.596;23.044;2023-03-03T11:37:56;92814.50;;;7.39;91.77
15568;BME280;7885;42.596;23.044;2023-03-03T11:40:26;92817.59;;;7.41;91.19
15568;BME280;7885;42.596;23.044;2023-03-03T11:43:00;92806.75;;;7.41;91.44
15568;BME280;7885;42.596;23.044;2023-03-03T11:45:34;92814.56;;;7.50;91.19
15568;BME280;7885;42.596;23.044;2023-03-03T11:48:12;92808.81;;;7.55;92.50
15568;BME280;7885;42.596;23.044;2023-03-03T11:50:47;92814.66;;;7.64;93.07
15568;BME280;7885;42.596;23.044;2023-03-03T11:53:26;92807.75;;;7.74;91.90
15568;BME280;7885;42.596;23.044;2023-03-03T11:55:56;92808.13;;;7.79;91.87
15568;BME280;7885;42.596;23.044;2023-03-03T11:58:27;92806.59;;;7.75;90.14
15568;BME280;7885;42.596;23.044;2023-03-03T12:01:00;92775.13;;;7.56;90.31
15568;BME280;7885;42.596;23.044;2023-03-03T12:03:39;92798.50;;;7.82;90.97
15568;BME280;7885;42.596;23.044;2023-03-03T12:06:21;92789.56;;;7.74;91.55
15568;BME280;7885;42.596;23.044;2023-03-03T12:09:05;92779.91;;;7.80;91.24
15568;BME280;7885;42.596;23.044;2023-03-03T12:11:40;92789.22;;;7.90;90.67
15568;BME280;7885;42.596;23.044;2023-03-03T12:14:19;92793.94;;;8.03;90.31
15568;BME280;7885;42.596;23.044;2023-03-03T12:16:54;92800.16;;;8.11;89.34
15568;BME280;7885;42.596;23.044;2023-03-03T12:19:33;92797.06;;;8.05;88.86
15568;BME280;7885;42.596;23.044;2023-03-03T12:22:25;92780.75;;;7.95;90.11
15568;BME280;7885;42.596;23.044;2023-03-03T12:25:13;92799.34;;;8.03;90.53
15568;BME280;7885;42.596;23.044;2023-03-03T12:27:49;92803.66;;;8.15;90.92
15568;BME280;7885;42.596;23.044;2023-03-03T12:30:25;92801.00;;;8.22;91.15
15568;BME280;7885;42.596;23.044;2023-03-03T12:33:10;92791.69;;;8.20;90.51
15568;BME280;7885;42.596;23.044;2023-03-03T12:35:48;92801.00;;;8.26;91.01
15568;BME280;7885;42.596;23.044;2023-03-03T12:38:24;92801.78;;;8.23;91.73
15568;BME280;7885;42.596;23.044;2023-03-03T12:40:59;92797.13;;;8.23;91.10
15568;BME280;7885;42.596;23.044;2023-03-03T12:43:46;92801.75;;;8.19;92.14
15568;BME280;7885;42.596;23.044;2023-03-03T12:46:20;92780.03;;;8.12;92.36
15568;BME280;7885;42.596;23.044;2023-03-03T12:48:48;92795.59;;;8.26;92.33
15568;BME280;7885;42.596;23.044;2023-03-03T12:51:30;92798.34;;;8.29;92.27
15568;BME280;7885;42.596;23.044;2023-03-03T12:54:25;92787.81;;;8.28;92.16
15568;BME280;7885;42.596;23.044;2023-03-03T12:56:57;92728.09;;;7.89;92.49
15568;BME280;7885;42.596;23.044;2023-03-03T12:59:33;92785.88;;;8.21;92.82
15568;BME280;7885;42.596;23.044;2023-03-03T13:02:27;92779.69;;;8.24;93.15
15568;BME280;7885;42.596;23.044;2023-03-03T13:05:06;92778.53;;;8.22;93.45
15568;BME280;7885;42.596;23.044;2023-03-03T13:07:40;92765.72;;;8.15;93.19
15568;BME280;7885;42.596;23.044;2023-03-03T13:10:17;92756.00;;;8.07;93.16
15568;BME280;7885;42.596;23.044;2023-03-03T13:12:48;92744.41;;;8.03;93.11
15568;BME280;7885;42.596;23.044;2023-03-03T13:15:21;92789.44;;;8.32;93.31
15568;BME280;7885;42.596;23.044;2023-03-03T13:18:03;92740.16;;;8.09;93.25
15568;BME280;7885;42.596;23.044;2023-03-03T13:20:40;92777.44;;;8.30;92.86
15568;BME280;7885;42.596;23.044;2023-03-03T13:23:19;92770.78;;;8.20;93.23
15568;BME280;7885;42.596;23.044;2023-03-03T13:25:52;92778.16;;;8.23;92.66
15568;BME280;7885;42.596;23.044;2023-03-03T13:28:27;92763.00;;;8.08;92.91
15568;BME280;7885;42.596;23.044;2023-03-03T13:31:02;92781.63;;;8.20;92.66
15568;BME280;7885;42.596;23.044;2023-03-03T13:33:33;92760.28;;;8.08;92.75
15568;BME280;7885;42.596;23.044;2023-03-03T13:36:02;92783.16;;;8.21;91.80
15568;BME280;7885;42.596;23.044;2023-03-03T13:38:35;92768.84;;;8.24;91.10
15568;BME280;7885;42.596;23.044;2023-03-03T13:41:10;92752.97;;;8.23;91.16
15568;BME280;7885;42.596;23.044;2023-03-03T13:43:42;92770.84;;;8.41;91.50
15568;BME280;7885;42.596;23.044;2023-03-03T13:46:16;92714.22;;;8.11;92.29
15568;BME280;7885;42.596;23.044;2023-03-03T13:48:52;92775.56;;;8.51;92.34
15568;BME280;7885;42.596;23.044;2023-03-03T13:51:30;92773.56;;;8.48;92.91
15568;BME280;7885;42.596;23.044;2023-03-03T13:54:10;92768.94;;;8.49;93.43
15568;BME280;7885;42.596;23.044;2023-03-03T13:56:59;92775.91;;;8.50;93.85
15568;BME280;7885;42.596;23.044;2023-03-03T13:59:36;92748.41;;;8.34;92.98
15568;BME280;7885;42.596;23.044;2023-03-03T14:02:20;92772.44;;;8.49;92.18
15568;BME280;7885;42.596;23.044;2023-03-03T14:05:11;92772.41;;;8.46;92.01
15568;BME280;7885;42.596;23.044;2023-03-03T14:07:41;92772.41;;;8.42;91.82
15568;BME280;7885;42.596;23.044;2023-03-03T14:10:17;92761.56;;;8.42;92.60